Latest Weather Observations for Bellambi

IDN60801

Issued at 5:42 pm EST Sunday 15 September 2019 (issued every 10 minutes, with the page automatically refreshed every 10 minutes)

About weather observations | Map of weather stations | Latest weather observations for NSW | Other Formats
Station Details ID: 068228 Name: BELLAMBI AWS Lat: -34.37 Lon: 150.93 Height: 10.0 m
Data from the previous 72 hours. | See also: Recent months at Bellambi
Date/Time
EST
Temp
°C
App
Temp
°C
Dew
Point
°C
Rel
Hum
%
Delta-T
°C
Wind Press
QNH
hPa
Press
MSL
hPa
Rain since
9am
mm
Dir  Spd
km/h
Gust
km/h
Spd
kts
Gust
kts
15/05:30pm 18.3 17.9 14.0 76 2.5 NNE 9 13 5 7 - - 0.0
15/05:00pm 18.7 17.7 13.3 71 3.1 NE 11 13 6 7 - - 0.0
15/04:30pm 19.3 18.5 13.0 67 3.6 ENE 9 13 5 7 - - 0.0
15/04:00pm 20.0 18.0 12.7 63 4.1 NNE 15 19 8 10 - - 0.0
15/03:30pm 18.8 17.0 13.4 71 3.1 NNE 15 19 8 10 - - 0.0
15/03:00pm 19.5 18.3 13.9 70 3.2 NNE 13 15 7 8 - - 0.0
15/02:30pm 20.5 19.8 13.2 63 4.2 NNE 9 15 5 8 - - 0.0
15/02:00pm 21.1 19.4 12.3 57 5.0 NNE 13 17 7 9 - - 0.0
15/01:30pm 21.2 20.1 13.1 60 4.6 NNE 11 15 6 8 - - 0.0
15/01:00pm 22.0 19.6 9.9 46 6.6 NE 13 17 7 9 - - 0.0
15/12:30pm 21.3 18.7 9.5 47 6.3 NNE 13 19 7 10 - - 0.0
15/12:00pm 21.0 19.6 10.8 52 5.6 NNE 9 13 5 7 - - 0.0
15/11:30am 21.1 18.3 11.4 54 5.4 ENE 17 19 9 10 - - 0.0
15/11:00am 22.0 19.2 9.9 46 6.6 E 15 17 8 9 - - 0.0
15/10:30am 22.2 18.6 5.2 33 8.4 ENE 13 19 7 10 - - 0.0
15/10:00am 22.8 19.0 1.8 25 9.8 NNE 11 13 6 7 - - 0.0
15/09:30am 21.3 18.3 4.0 32 8.4 N 9 11 5 6 - - 0.0
15/09:00am 21.1 17.1 0.3 25 9.3 W 11 17 6 9 - - 0.0
15/08:30am 19.1 15.1 2.9 34 7.5 NW 13 17 7 9 - - 0.0
15/08:00am 17.7 15.2 5.0 43 6.1 NNW 7 11 4 6 - - 0.0
15/07:30am 16.1 13.0 3.5 43 5.8 NNW 9 15 5 8 - - 0.0
15/07:00am 14.4 11.2 2.9 46 5.1 WNW 9 15 5 8 - - 0.0
15/06:30am 13.1 11.5 6.5 64 3.2 NW 4 11 2 6 - - 0.0
15/06:00am 12.7 11.9 6.7 67 2.9 CALM 0 0 0 0 - - 0.0
15/05:30am 12.4 11.7 6.9 69 2.6 CALM 0 0 0 0 - - 0.0
15/05:00am 12.4 9.5 6.7 68 2.7 NW 11 17 6 9 - - 0.0
15/04:30am 12.6 8.2 7.5 71 2.5 NW 20 26 11 14 - - 0.0
15/04:00am 12.3 7.5 7.4 72 2.4 NW 22 28 12 15 - - 0.0
15/03:30am 12.2 7.4 7.5 73 2.3 NW 22 28 12 15 - - 0.0
15/03:00am 12.1 7.7 7.4 73 2.3 NW 20 26 11 14 - - 0.0
15/02:30am 12.2 6.6 7.3 72 2.4 WNW 26 32 14 17 - - 0.0
15/02:00am 12.0 7.6 7.3 73 2.3 NW 20 28 11 15 - - 0.0
15/01:30am 12.0 9.7 7.3 73 2.3 NW 9 17 5 9 - - 0.0
15/01:00am 12.2 9.5 7.5 73 2.3 NNW 11 17 6 9 - - 0.0
15/12:30am 11.8 9.0 7.1 73 2.3 NW 11 15 6 8 - - 0.0
15/12:00am 11.6 8.8 6.9 73 2.2 WNW 11 17 6 9 - - 0.0
 
Date/Time
EST
Temp
°C
App
Temp
°C
Dew
Point
°C
Rel
Hum
%
Delta-T
°C
Wind Press
QNH
hPa
Press
MSL
hPa
Rain since
9am
mm
Dir  Spd
km/h
Gust
km/h
Spd
kts
Gust
kts
14/11:30pm 11.8 8.3 7.1 73 2.3 WNW 15 19 8 10 - - 0.0
14/11:00pm 11.2 6.8 6.7 74 2.1 WNW 19 24 10 13 - - 0.0
14/10:30pm 11.8 8.3 7.1 73 2.3 WNW 15 20 8 11 - - 0.0
14/10:00pm 11.6 8.4 6.9 73 2.2 WNW 13 17 7 9 - - 0.0
14/09:30pm 11.6 9.1 6.7 72 2.3 WNW 9 13 5 7 - - 0.0
14/09:00pm 11.8 9.8 6.9 72 2.3 WNW 7 9 4 5 - - 0.0
14/08:30pm 12.4 10.4 7.3 71 2.5 W 7 9 4 5 - - 0.0
14/08:00pm 12.4 9.6 6.9 69 2.6 W 11 13 6 7 - - 0.0
14/07:30pm 12.7 10.2 6.7 67 2.9 WSW 9 9 5 5 - - 0.0
14/07:00pm 13.7 11.6 6.8 63 3.3 S 7 11 4 6 - - 0.0
14/06:30pm 14.3 12.3 7.1 62 3.5 S 7 9 4 5 - - 0.0
14/06:00pm 14.8 12.2 7.8 63 3.5 SSE 11 13 6 7 - - 0.0
14/05:30pm 14.9 11.8 7.2 60 3.8 SSE 13 15 7 8 - - 0.0
14/05:00pm 15.3 12.3 7.6 60 3.8 SE 13 17 7 9 - - 0.0
14/04:30pm 15.7 12.7 7.7 59 4.0 SE 13 17 7 9 - - 0.0
14/04:00pm 16.2 12.9 7.9 58 4.2 SE 15 19 8 10 - - 0.0
14/03:30pm 16.5 12.9 8.2 58 4.2 SE 17 20 9 11 - - 0.0
14/03:00pm 16.6 12.5 7.8 56 4.4 SE 19 20 10 11 - - 0.0
14/02:30pm 16.8 13.2 8.2 57 4.4 SSE 17 20 9 11 - - 0.0
14/02:00pm 16.8 13.1 8.0 56 4.5 SSE 17 20 9 11 - - 0.0
14/01:30pm 17.6 14.4 10.0 61 4.0 SSE 17 20 9 11 - - 0.0
14/01:00pm 16.9 12.6 9.3 61 4.0 SE 22 26 12 14 - - 0.0
14/12:30pm 17.0 12.4 9.7 62 3.8 SSE 24 28 13 15 - - 0.0
14/12:00pm 17.0 12.1 10.1 64 3.6 SSE 26 30 14 16 - - 0.0
14/11:30am 16.9 12.4 10.1 64 3.6 SSE 24 30 13 16 - - 0.0
14/11:00am 17.2 12.7 9.9 62 3.8 SSE 24 28 13 15 - - 0.0
14/10:30am 17.7 13.8 9.3 58 4.4 SSE 20 24 11 13 - - 0.0
14/10:00am 18.0 13.9 8.8 55 4.8 SSE 20 24 11 13 - - 0.0
14/09:30am 17.5 14.2 8.1 54 4.8 S 15 22 8 12 - - 0.0
14/09:00am 17.3 12.4 1.7 35 7.0 SW 17 22 9 12 - - 0.0
14/08:30am 16.7 11.7 1.2 35 6.8 SW 17 24 9 13 - - 0.0
14/08:00am 16.6 11.5 4.0 43 5.9 SW 20 28 11 15 - - 0.0
14/07:30am 16.1 10.7 2.2 39 6.2 SW 20 30 11 16 - - 0.0
14/07:00am 14.9 9.2 0.4 37 6.2 SW 20 28 11 15 - - 0.0
14/06:30am 13.6 8.8 0.3 40 5.6 WSW 15 20 8 11 - - 0.0
14/06:00am 14.5 8.3 2.1 43 5.5 SSW 24 35 13 19 - - 0.0
14/05:30am 15.5 9.2 5.7 52 4.7 S 28 33 15 18 - - 0.0
14/05:00am 16.2 10.3 1.9 38 6.4 SSW 22 28 12 15 - - 0.0
14/04:30am 16.1 10.9 -2.4 28 7.5 WSW 15 20 8 11 - - 0.0
14/04:00am 16.2 11.6 -3.8 25 7.9 WSW 11 19 6 10 - - 0.0
14/03:30am 16.3 11.6 -4.8 23 8.1 WSW 11 17 6 9 - - 0.0
14/03:00am 16.8 11.0 -4.4 23 8.3 WSW 17 32 9 17 - - 0.0
14/02:30am 16.0 10.9 -5.1 23 8.1 WSW 13 20 7 11 - - 0.0
14/02:00am 16.1 11.1 -4.4 24 8.0 WSW 13 22 7 12 - - 0.0
14/01:30am 16.4 10.1 -4.2 24 8.1 WSW 20 28 11 15 - - 0.0
14/01:00am 16.3 10.4 -2.2 28 7.5 WSW 19 28 10 15 - - 0.0
14/12:30am 15.2 10.3 1.7 40 5.9 SW 17 24 9 13 - - 0.0
14/12:00am 13.8 11.5 7.6 66 3.0 WNW 9 11 5 6 - - 0.0
 
Date/Time
EST
Temp
°C
App
Temp
°C
Dew
Point
°C
Rel
Hum
%
Delta-T
°C
Wind Press
QNH
hPa
Press
MSL
hPa
Rain since
9am
mm
Dir  Spd
km/h
Gust
km/h
Spd
kts
Gust
kts
13/11:30pm 14.0 11.5 8.0 67 3.0 WSW 11 17 6 9 - - 0.0
13/11:00pm 14.3 12.0 8.9 70 2.7 W 11 17 6 9 - - 0.0
13/10:30pm 14.9 10.0 10.1 73 2.5 NW 26 37 14 20 - - 0.0
13/10:29pm 15.0 10.2 10.2 73 2.5 NW 26 37 14 20 - - 0.0
13/10:00pm 14.5 11.7 10.1 75 2.3 WNW 15 19 8 10 - - 0.0
13/09:30pm 14.3 12.2 9.7 74 2.4 WNW 11 15 6 8 - - 0.0
13/09:00pm 15.2 13.8 10.8 75 2.3 N 9 13 5 7 - - 0.0
13/08:30pm 14.6 13.4 10.2 75 2.3 NNE 7 11 4 6 - - 0.0
13/08:00pm 14.5 12.5 10.1 75 2.3 NW 11 15 6 8 - - 0.0
13/07:30pm 14.8 12.1 10.4 75 2.3 NNW 15 19 8 10 - - 0.0
13/07:00pm 14.8 12.5 10.4 75 2.3 NNW 13 17 7 9 - - 0.0
13/06:30pm 15.0 12.6 10.2 73 2.5 NW 13 17 7 9 - - 0.0
13/06:00pm 15.2 13.2 10.2 72 2.6 NNE 11 17 6 9 - - 0.0
13/05:30pm 15.4 13.0 10.2 71 2.7 NNE 13 19 7 10 - - 0.0
13/05:00pm 15.7 13.3 10.0 69 3.0 NE 13 17 7 9 - - 0.0
13/04:30pm 16.3 13.6 10.4 68 3.1 NE 15 19 8 10 - - 0.0
13/04:00pm 16.5 13.7 10.1 66 3.4 NE 15 19 8 10 - - 0.0
13/03:30pm 17.0 13.8 10.1 64 3.6 NE 17 20 9 11 - - 0.0
13/03:00pm 17.0 14.2 10.1 64 3.6 NE 15 19 8 10 - - 0.0
13/02:30pm 17.5 14.7 10.1 62 3.9 ENE 15 19 8 10 - - 0.0
13/02:00pm 17.4 15.0 10.1 62 3.9 ENE 13 17 7 9 - - 0.0
13/01:30pm 17.7 15.1 10.6 63 3.8 ENE 15 17 8 9 - - 0.0
13/01:00pm 18.0 15.7 10.6 62 4.0 ENE 13 17 7 9 - - 0.0
13/12:30pm 17.9 15.7 10.8 63 3.8 E 13 15 7 8 - - 0.0
13/12:00pm 18.1 16.0 11.2 64 3.7 ESE 13 17 7 9 - - 0.0
13/11:30am 17.7 15.6 11.0 65 3.6 ESE 13 19 7 10 - - 0.0
13/11:00am 16.9 14.2 10.5 66 3.4 SSE 15 17 8 9 - - 0.0
13/10:30am 17.0 14.5 11.1 68 3.2 SSE 15 19 8 10 - - 0.0
13/10:00am 17.1 14.4 11.6 70 3.0 SSE 17 20 9 11 - - 0.0
13/09:30am 16.9 13.6 11.6 71 2.9 SSE 20 24 11 13 - - 0.0
13/09:00am 16.8 13.5 11.5 71 2.9 S 20 24 11 13 - - 0.0
13/08:30am 16.2 12.8 11.4 73 2.6 SSW 20 26 11 14 - - 0.0
13/08:00am 16.2 12.5 11.6 74 2.5 SSW 22 28 12 15 - - 0.0
13/07:30am 15.8 13.1 11.6 76 2.3 SSW 17 22 9 12 - - 0.0
13/07:00am 14.5 12.2 10.5 77 2.1 SW 13 19 7 10 - - 0.0
13/06:30am 14.1 11.2 9.7 75 2.3 SW 15 19 8 10 - - 0.0
13/06:00am 14.5 11.7 9.9 74 2.4 SW 15 19 8 10 - - 0.0
13/05:30am 14.0 11.3 9.0 72 2.5 SW 13 17 7 9 - - 0.0
13/05:00am 14.3 12.1 9.3 72 2.6 SW 11 15 6 8 - - 0.0
13/04:30am 14.6 12.0 9.4 71 2.7 WSW 13 15 7 8 - - 0.0
13/04:00am 14.3 11.8 8.3 67 3.0 SW 11 15 6 8 - - 0.0
13/03:30am 14.1 11.0 7.2 63 3.4 WSW 13 17 7 9 - - 0.0
13/03:00am 14.1 9.9 5.5 56 4.1 SW 17 19 9 10 - - 0.0
13/02:30am 14.0 10.0 4.9 54 4.2 SW 15 17 8 9 - - 0.0
13/02:00am 14.5 10.3 5.8 56 4.1 SW 17 22 9 12 - - 0.0
13/01:30am 13.8 9.9 3.3 49 4.7 SW 13 15 7 8 - - 0.0
13/01:00am 15.3 11.3 3.1 44 5.5 WSW 13 15 7 8 - - 0.0
13/12:30am 15.8 11.7 2.2 40 6.1 WSW 13 15 7 8 - - 0.0
13/12:00am 16.4 12.3 0.1 33 7.0 W 11 15 6 8 - - 0.0
 
Date/Time
EST
Temp
°C
App
Temp
°C
Dew
Point
°C
Rel
Hum
%
Delta-T
°C
Wind Press
QNH
hPa
Press
MSL
hPa
Rain since
9am
mm
Dir  Spd
km/h
Gust
km/h
Spd
kts
Gust
kts
12/11:30pm 17.3 14.1 3.2 39 6.5 SW 9 13 5 7 - - 0.0
12/11:00pm 18.3 14.0 3.4 37 6.9 SW 15 30 8 16 - - 0.0
12/10:30pm 19.1 13.4 -3.7 21 9.3 W 17 24 9 13 - - 0.0
12/10:00pm 18.8 13.5 -3.3 22 9.0 W 15 28 8 15 - - 0.0
12/09:30pm 16.1 14.7 5.4 49 5.1 NW 2 7 1 4 - - 0.0
12/09:00pm 16.9 14.2 5.8 48 5.4 WNW 9 13 5 7 - - 0.0
12/08:30pm 16.7 13.1 2.7 39 6.4 W 11 13 6 7 - - 0.0
12/08:00pm 17.6 15.5 8.2 54 4.8 S 9 13 5 7 - - 0.0
12/07:30pm 18.2 17.9 8.5 53 5.0 CALM 0 2 0 1 - - 0.0
12/07:00pm 18.8 16.5 9.0 53 5.1 ESE 11 19 6 10 - - 0.0
12/06:30pm 18.6 16.6 8.8 53 5.1 ESE 9 20 5 11 - - 0.0
12/06:00pm 19.3 17.0 5.0 39 6.9 SW 6 17 3 9 - - 0.0

Other formats

Comma delimited format used in spreadsheet applications
http://www.bom.gov.au/fwo/IDN60801/IDN60801.94749.axf

JavaScript Object Notation format (JSON) in row-major order
http://www.bom.gov.au/fwo/IDN60801/IDN60801.94749.json

Data quality

Most of these data are generated automatically and are frequently updated. Quality checks on data are not normally performed. It is possible for incorrect values to appear. Refer to information at About Latest Weather Observations and please check the disclaimer before using these data.